Terminal Aerodrome Forecast
Issued by NWS Portland, OR

Home | Current Version | Previous Version | Text Only | Print | Product List | Glossary On
Versions: 1 2 3 4 5 6 7 8 9 10 11 12 13 14 15 16 17 18 19 20 21
000
FTUS46 KPQR 052331
TAFEUG
TAF
KEUG 052331Z 0600/0624 21005KT P6SM -SHRA SCT015 SCT025 BKN050
     FM060400 20005KT P6SM VCSH SCT025 BKN050
     FM061200 16004KT P6SM FEW012 BKN018 BKN025
     FM061700 36005KT P6SM SCT025 BKN035=

USA.gov is the U.S. government's official web portal to all federal, state and local government web resources and services.